Time;durP1;ratioP1;P1;durP2;ratioP2;P2;SDS_P1;SDS_P2;PMS_P1;PMS_P2;Temp;Humidity;BMP_temperature;BMP_pressure;BME280_temperature;BME280_humidity;BME280_pressure;Samples;Min_cycle;Max_cycle;Signal;HPM_P1;HPM_P2
2023/07/26 00:01:42;;;;;;;4.97;2.22;;;;;;;;;;6159824;23;20457;-61
2023/07/26 00:04:09;;;;;;;5.35;3.03;;;;;;;;;;6155853;23;20041;-59
2023/07/26 00:06:35;;;;;;;4.63;2.63;;;;;;;;;;6156602;23;20104;-59
2023/07/26 00:09:03;;;;;;;4.55;2.58;;;;;;;;;;6156617;23;20100;-59
2023/07/26 00:11:30;;;;;;;4.30;2.70;;;;;;;;;;6155084;23;20101;-59
2023/07/26 00:13:58;;;;;;;5.25;2.28;;;;;;;;;;6155934;23;20026;-59
2023/07/26 00:16:24;;;;;;;4.03;2.20;;;;;;;;;;6156439;23;20108;-60
2023/07/26 00:18:51;;;;;;;4.95;2.67;;;;;;;;;;6157600;23;20053;-59
2023/07/26 00:21:17;;;;;;;5.20;2.80;;;;;;;;;;6155466;23;20040;-60
2023/07/26 00:23:44;;;;;;;4.47;2.40;;;;;;;;;;6157356;23;20048;-59
2023/07/26 00:26:11;;;;;;;4.82;2.70;;;;;;;;;;6156768;23;20057;-59
2023/07/26 00:28:38;;;;;;;4.22;2.33;;;;;;;;;;6155919;23;20408;-59
2023/07/26 00:31:07;;;;;;;4.32;2.42;;;;;;;;;;6158487;23;20048;-59
2023/07/26 00:33:34;;;;;;;5.15;2.70;;;;;;;;;;6159251;23;20052;-61
2023/07/26 00:36:02;;;;;;;4.80;2.50;;;;;;;;;;6158203;23;20018;-58
2023/07/26 00:38:29;;;;;;;4.30;2.55;;;;;;;;;;6155133;23;20477;-58
2023/07/26 00:40:56;;;;;;;4.47;2.80;;;;;;;;;;6154975;23;20096;-58
2023/07/26 00:43:23;;;;;;;5.15;2.47;;;;;;;;;;6154641;23;20072;-59
2023/07/26 00:45:50;;;;;;;6.05;2.38;;;;;;;;;;6155619;23;20043;-58
2023/07/26 00:48:18;;;;;;;5.70;2.67;;;;;;;;;;6155909;23;20024;-59
2023/07/26 00:50:47;;;;;;;5.22;3.17;;;;;;;;;;6155159;23;20322;-59
2023/07/26 00:53:15;;;;;;;5.05;2.70;;;;;;;;;;6156548;23;20087;-58
2023/07/26 00:55:43;;;;;;;6.45;3.25;;;;;;;;;;6156888;23;20022;-60
2023/07/26 00:58:11;;;;;;;4.35;2.42;;;;;;;;;;6155996;23;20022;-60
2023/07/26 01:00:40;;;;;;;5.45;3.10;;;;;;;;;;6154797;23;20353;-59
2023/07/26 01:03:07;;;;;;;4.82;2.53;;;;;;;;;;6156489;23;20387;-58
2023/07/26 01:05:40;;;;;;;4.70;2.95;;;;;;;;;;6155658;23;20033;-58
2023/07/26 01:08:14;;;;;;;4.82;3.03;;;;;;;;;;6154685;23;20022;-58
2023/07/26 01:10:45;;;;;;;4.88;3.05;;;;;;;;;;6155185;23;20017;-58
2023/07/26 01:13:18;;;;;;;5.88;3.10;;;;;;;;;;6156341;23;20017;-57
2023/07/26 01:15:46;;;;;;;5.80;3.05;;;;;;;;;;6154883;23;20021;-55
2023/07/26 01:18:15;;;;;;;6.22;3.25;;;;;;;;;;6156558;23;20021;-60
2023/07/26 01:20:44;;;;;;;5.40;3.08;;;;;;;;;;6156309;23;20075;-58
2023/07/26 01:23:13;;;;;;;4.65;3.35;;;;;;;;;;6157530;23;20022;-59
2023/07/26 01:25:39;;;;;;;5.18;3.00;;;;;;;;;;6154704;23;20045;-57
2023/07/26 01:28:06;;;;;;;6.18;3.47;;;;;;;;;;6154607;23;20056;-62
2023/07/26 01:30:35;;;;;;;6.55;3.47;;;;;;;;;;6155076;23;20100;-61
2023/07/26 01:33:05;;;;;;;7.07;4.32;;;;;;;;;;6156029;23;20461;-59
2023/07/26 01:35:33;;;;;;;5.70;3.47;;;;;;;;;;6155410;23;20049;-60
2023/07/26 01:38:01;;;;;;;5.80;3.50;;;;;;;;;;6155576;23;20061;-61
2023/07/26 01:40:29;;;;;;;6.47;3.85;;;;;;;;;;6154998;23;20024;-58
2023/07/26 01:42:57;;;;;;;6.15;3.47;;;;;;;;;;6146904;23;20097;-77
2023/07/26 01:45:23;;;;;;;7.80;4.10;;;;;;;;;;6155492;23;20096;-78
2023/07/26 01:47:50;;;;;;;6.03;4.30;;;;;;;;;;6156716;23;20492;-78
2023/07/26 01:50:17;;;;;;;6.22;3.60;;;;;;;;;;6156432;23;20112;-78
2023/07/26 01:52:43;;;;;;;6.22;4.18;;;;;;;;;;6156730;23;20045;-78
2023/07/26 01:55:10;;;;;;;6.38;4.18;;;;;;;;;;6157388;23;20093;-78
2023/07/26 01:57:38;;;;;;;6.72;3.53;;;;;;;;;;6157335;23;20575;-78
2023/07/26 02:00:06;;;;;;;7.20;4.25;;;;;;;;;;6155294;23;20358;-76
2023/07/26 02:02:31;;;;;;;5.82;3.95;;;;;;;;;;6154429;23;20033;-77
2023/07/26 02:04:58;;;;;;;6.85;3.72;;;;;;;;;;6154273;23;20022;-77
2023/07/26 02:07:24;;;;;;;6.43;4.18;;;;;;;;;;6157043;23;20040;-77
2023/07/26 02:09:51;;;;;;;7.13;4.32;;;;;;;;;;6157038;23;20024;-79
2023/07/26 02:12:17;;;;;;;7.65;4.10;;;;;;;;;;6156833;23;20021;-78
2023/07/26 02:14:45;;;;;;;6.75;4.07;;;;;;;;;;6157221;23;20490;-78
2023/07/26 02:17:12;;;;;;;6.53;4.00;;;;;;;;;;6157866;23;20028;-78
2023/07/26 02:19:38;;;;;;;6.38;3.70;;;;;;;;;;6157925;23;20185;-78
2023/07/26 02:22:05;;;;;;;7.40;4.20;;;;;;;;;;6157669;23;20017;-77
2023/07/26 02:24:33;;;;;;;5.88;3.92;;;;;;;;;;6157434;23;20358;-79
2023/07/26 02:27:00;;;;;;;8.23;4.10;;;;;;;;;;6153975;23;20398;-77
2023/07/26 02:29:27;;;;;;;5.82;4.22;;;;;;;;;;6157811;23;20017;-77
2023/07/26 02:31:55;;;;;;;7.53;4.13;;;;;;;;;;6158124;23;20084;-78
2023/07/26 02:34:21;;;;;;;7.50;4.38;;;;;;;;;;6158111;23;20040;-77
2023/07/26 02:36:48;;;;;;;6.50;3.90;;;;;;;;;;6155515;23;20116;-77
2023/07/26 02:39:14;;;;;;;6.15;4.03;;;;;;;;;;6155263;23;20100;-77
2023/07/26 02:41:41;;;;;;;7.93;4.57;;;;;;;;;;6155602;23;20490;-77
2023/07/26 02:44:07;;;;;;;7.07;4.20;;;;;;;;;;6156832;23;20036;-78
2023/07/26 02:46:34;;;;;;;6.80;4.07;;;;;;;;;;6155014;23;20022;-77
2023/07/26 02:49:02;;;;;;;6.68;4.80;;;;;;;;;;6154027;23;20366;-77
2023/07/26 02:51:28;;;;;;;6.75;4.47;;;;;;;;;;6153811;23;20052;-77
2023/07/26 02:53:55;;;;;;;7.60;4.35;;;;;;;;;;6153221;23;20387;-77
2023/07/26 02:56:21;;;;;;;6.50;3.80;;;;;;;;;;6153444;23;20362;-77
2023/07/26 02:58:48;;;;;;;6.35;4.00;;;;;;;;;;6153775;23;20028;-77
2023/07/26 03:01:15;;;;;;;7.72;4.45;;;;;;;;;;6153419;23;20104;-77
2023/07/26 03:03:42;;;;;;;6.85;4.47;;;;;;;;;;6155411;23;20017;-78
2023/07/26 03:06:10;;;;;;;6.60;4.43;;;;;;;;;;6157793;23;20049;-78
2023/07/26 03:08:37;;;;;;;9.35;4.82;;;;;;;;;;6159411;23;20026;-78
2023/07/26 03:11:04;;;;;;;7.75;4.60;;;;;;;;;;6158982;23;20131;-78
2023/07/26 03:13:30;;;;;;;6.90;4.40;;;;;;;;;;6161069;23;20017;-78
2023/07/26 03:15:57;;;;;;;7.40;4.72;;;;;;;;;;6162787;23;20116;-78
2023/07/26 03:18:23;;;;;;;7.90;4.90;;;;;;;;;;6162461;23;20017;-78
2023/07/26 03:20:50;;;;;;;8.18;4.93;;;;;;;;;;6159246;23;20021;-77
2023/07/26 03:23:18;;;;;;;7.00;5.00;;;;;;;;;;6158419;23;20022;-78
2023/07/26 03:25:45;;;;;;;6.97;4.40;;;;;;;;;;6156478;23;20024;-78
2023/07/26 03:28:11;;;;;;;6.47;4.45;;;;;;;;;;6159357;23;20053;-78
2023/07/26 03:30:38;;;;;;;7.95;4.82;;;;;;;;;;6158993;23;20043;-78
2023/07/26 03:33:04;;;;;;;8.20;4.60;;;;;;;;;;6156417;23;20017;-78
2023/07/26 03:35:31;;;;;;;7.18;5.03;;;;;;;;;;6156874;23;20470;-77
2023/07/26 03:37:58;;;;;;;6.60;4.57;;;;;;;;;;6156742;23;20035;-77
2023/07/26 03:40:26;;;;;;;7.63;4.70;;;;;;;;;;6155150;23;20018;-77
2023/07/26 03:42:52;;;;;;;7.85;5.03;;;;;;;;;;6155667;23;20024;-78
2023/07/26 03:45:19;;;;;;;7.22;5.05;;;;;;;;;;6155762;23;20028;-78
2023/07/26 03:47:46;;;;;;;7.68;4.63;;;;;;;;;;6155754;23;20489;-78
2023/07/26 03:50:12;;;;;;;6.28;4.82;;;;;;;;;;6155490;23;20018;-77
2023/07/26 03:52:39;;;;;;;6.68;5.05;;;;;;;;;;6154350;23;20081;-77
2023/07/26 03:55:06;;;;;;;8.65;5.07;;;;;;;;;;6155140;23;20024;-77
2023/07/26 03:57:34;;;;;;;7.43;4.05;;;;;;;;;;6156159;23;20044;-77
2023/07/26 04:00:01;;;;;;;7.38;4.30;;;;;;;;;;6155370;23;20357;-77
2023/07/26 04:02:27;;;;;;;7.90;4.38;;;;;;;;;;6155075;23;20017;-77
2023/07/26 04:04:54;;;;;;;7.82;5.28;;;;;;;;;;6155162;23;20072;-77
2023/07/26 04:07:20;;;;;;;8.00;5.32;;;;;;;;;;6155878;23;20096;-77
2023/07/26 04:09:47;;;;;;;7.10;4.68;;;;;;;;;;6155002;23;20478;-77
2023/07/26 04:12:13;;;;;;;7.20;4.97;;;;;;;;;;6155163;23;20167;-77
2023/07/26 04:14:42;;;;;;;8.23;4.97;;;;;;;;;;6154397;23;20470;-78
2023/07/26 04:17:08;;;;;;;8.85;5.10;;;;;;;;;;6155605;23;20104;-77
2023/07/26 04:19:35;;;;;;;7.85;5.40;;;;;;;;;;6155691;23;20022;-77
2023/07/26 04:22:02;;;;;;;7.82;4.88;;;;;;;;;;6155691;23;20017;-78
2023/07/26 04:24:28;;;;;;;9.35;5.78;;;;;;;;;;6155664;23;20033;-78
2023/07/26 04:26:55;;;;;;;8.82;5.50;;;;;;;;;;6158005;23;20048;-78
2023/07/26 04:29:21;;;;;;;7.65;5.53;;;;;;;;;;6158640;23;20521;-78
2023/07/26 04:31:49;;;;;;;8.32;5.78;;;;;;;;;;6158609;23;20029;-78
2023/07/26 04:34:16;;;;;;;8.25;5.50;;;;;;;;;;6158807;23;20403;-78
2023/07/26 04:36:42;;;;;;;7.95;5.82;;;;;;;;;;6159348;23;20021;-78
2023/07/26 04:39:09;;;;;;;9.05;6.03;;;;;;;;;;6156902;23;20018;-77
2023/07/26 04:41:35;;;;;;;9.48;6.00;;;;;;;;;;6155464;23;20100;-78
2023/07/26 04:44:02;;;;;;;8.15;6.00;;;;;;;;;;6154940;23;20018;-78
2023/07/26 04:46:28;;;;;;;9.02;6.53;;;;;;;;;;6155184;23;20025;-77
2023/07/26 04:48:56;;;;;;;9.57;6.53;;;;;;;;;;6155326;23;20466;-78
2023/07/26 04:51:23;;;;;;;10.93;7.63;;;;;;;;;;6155156;23;20181;-78
2023/07/26 04:53:50;;;;;;;11.18;7.03;;;;;;;;;;6155401;23;20040;-78
2023/07/26 04:56:16;;;;;;;10.55;7.03;;;;;;;;;;6154798;23;20565;-78
2023/07/26 04:58:43;;;;;;;10.27;7.22;;;;;;;;;;6157613;23;20018;-78
2023/07/26 05:01:10;;;;;;;10.27;8.20;;;;;;;;;;6158232;23;20370;-78
2023/07/26 05:03:38;;;;;;;10.50;8.10;;;;;;;;;;6160171;23;20021;-78
2023/07/26 05:06:06;;;;;;;12.20;8.32;;;;;;;;;;6159498;23;20018;-78
2023/07/26 05:08:33;;;;;;;12.98;8.73;;;;;;;;;;6160728;23;20017;-78
2023/07/26 05:11:00;;;;;;;11.75;8.18;;;;;;;;;;6158799;23;20025;-78
2023/07/26 05:13:26;;;;;;;13.57;7.93;;;;;;;;;;6157342;23;20496;-77
2023/07/26 05:15:53;;;;;;;12.93;8.75;;;;;;;;;;6159277;23;20028;-78
2023/07/26 05:18:19;;;;;;;11.73;8.30;;;;;;;;;;6157067;23;20096;-78
2023/07/26 05:20:49;;;;;;;11.50;7.78;;;;;;;;;;6160850;23;20025;-79
2023/07/26 05:23:17;;;;;;;13.40;9.13;;;;;;;;;;6165813;23;20032;-79
2023/07/26 05:25:43;;;;;;;14.23;10.55;;;;;;;;;;6161700;23;20096;-78
2023/07/26 05:28:10;;;;;;;13.70;10.05;;;;;;;;;;6160952;23;20018;-78
2023/07/26 05:30:39;;;;;;;16.40;10.45;;;;;;;;;;6157528;23;20101;-77
2023/07/26 05:33:05;;;;;;;14.60;9.45;;;;;;;;;;6158190;23;20021;-79
2023/07/26 05:35:32;;;;;;;13.82;9.88;;;;;;;;;;6155030;23;20435;-78
2023/07/26 05:37:58;;;;;;;14.63;10.48;;;;;;;;;;6155661;23;20022;-77
2023/07/26 05:40:26;;;;;;;14.77;9.98;;;;;;;;;;6154932;23;20356;-77
2023/07/26 05:42:53;;;;;;;13.63;10.20;;;;;;;;;;6155679;23;20096;-77
2023/07/26 05:45:20;;;;;;;14.60;11.45;;;;;;;;;;6157573;23;20018;-78
2023/07/26 05:47:46;;;;;;;14.82;9.77;;;;;;;;;;6157238;23;20033;-78
2023/07/26 05:50:14;;;;;;;14.15;10.10;;;;;;;;;;6156002;23;20339;-78
2023/07/26 05:52:40;;;;;;;16.17;10.93;;;;;;;;;;6155626;23;20022;-78
2023/07/26 05:55:07;;;;;;;15.73;10.85;;;;;;;;;;6155582;23;20076;-78
2023/07/26 05:57:35;;;;;;;16.08;10.50;;;;;;;;;;6155339;23;20022;-78
2023/07/26 06:00:02;;;;;;;14.15;10.95;;;;;;;;;;6155562;23;20018;-78
2023/07/26 06:02:28;;;;;;;15.35;11.25;;;;;;;;;;6155050;23;20096;-78
2023/07/26 06:04:55;;;;;;;16.05;11.02;;;;;;;;;;6155966;23;20041;-78
2023/07/26 06:07:22;;;;;;;15.27;11.25;;;;;;;;;;6156586;23;20024;-78
2023/07/26 06:09:48;;;;;;;15.07;10.85;;;;;;;;;;6156673;23;20028;-78
2023/07/26 06:12:15;;;;;;;14.45;10.95;;;;;;;;;;6156838;23;20028;-78
2023/07/26 06:14:43;;;;;;;15.80;10.73;;;;;;;;;;6155722;23;20018;-77
2023/07/26 06:17:11;;;;;;;15.75;11.77;;;;;;;;;;6155625;23;20025;-78
2023/07/26 06:19:38;;;;;;;15.45;11.70;;;;;;;;;;6155440;23;20462;-77
2023/07/26 06:22:05;;;;;;;17.85;11.82;;;;;;;;;;6156503;23;20021;-78
2023/07/26 06:24:32;;;;;;;17.38;12.50;;;;;;;;;;6159867;23;20028;-78
2023/07/26 06:26:58;;;;;;;15.75;11.50;;;;;;;;;;6160886;23;20030;-79
2023/07/26 06:29:25;;;;;;;16.77;12.30;;;;;;;;;;6160437;23;20024;-78
2023/07/26 06:31:53;;;;;;;15.50;11.25;;;;;;;;;;6160467;23;20024;-78
2023/07/26 06:34:19;;;;;;;17.67;12.70;;;;;;;;;;6160310;23;20021;-78
2023/07/26 06:36:46;;;;;;;17.33;11.68;;;;;;;;;;6161006;23;20052;-79
2023/07/26 06:39:13;;;;;;;15.02;11.30;;;;;;;;;;6160276;23;20025;-79
2023/07/26 06:41:39;;;;;;;15.95;10.35;;;;;;;;;;6159150;23;20018;-79
2023/07/26 06:44:06;;;;;;;15.98;11.13;;;;;;;;;;6159529;23;20018;-79
2023/07/26 06:46:34;;;;;;;15.05;10.85;;;;;;;;;;6159134;23;20023;-79
2023/07/26 06:49:02;;;;;;;15.70;10.85;;;;;;;;;;6157676;23;20409;-79
2023/07/26 06:51:29;;;;;;;17.92;12.30;;;;;;;;;;6156912;23;20094;-78
2023/07/26 06:53:55;;;;;;;15.20;11.43;;;;;;;;;;6157593;23;20017;-78
2023/07/26 06:56:22;;;;;;;16.42;11.65;;;;;;;;;;6159635;23;20026;-78
2023/07/26 06:58:48;;;;;;;15.18;10.65;;;;;;;;;;6159602;23;20358;-78
2023/07/26 07:01:18;;;;;;;14.60;10.30;;;;;;;;;;6159977;23;20028;-78
2023/07/26 07:03:45;;;;;;;16.17;10.57;;;;;;;;;;6160047;23;20017;-79
2023/07/26 07:06:15;;;;;;;15.50;11.50;;;;;;;;;;6159754;23;20264;-79
2023/07/26 07:08:41;;;;;;;14.63;11.07;;;;;;;;;;6161438;23;20076;-77
2023/07/26 07:11:08;;;;;;;14.80;10.98;;;;;;;;;;6162460;23;20017;-79
2023/07/26 07:13:36;;;;;;;13.68;9.98;;;;;;;;;;6161814;23;20021;-78
2023/07/26 07:16:04;;;;;;;15.50;10.20;;;;;;;;;;6161462;23;20052;-78
2023/07/26 07:18:31;;;;;;;14.82;9.48;;;;;;;;;;6157894;23;20540;-78
2023/07/26 07:21:00;;;;;;;14.48;9.85;;;;;;;;;;6157918;23;20502;-78
2023/07/26 07:23:28;;;;;;;13.13;9.32;;;;;;;;;;6158066;23;20072;-78
2023/07/26 07:25:55;;;;;;;14.32;9.73;;;;;;;;;;6156383;23;20073;-78
2023/07/26 07:28:21;;;;;;;12.52;8.52;;;;;;;;;;6156491;23;20025;-78
2023/07/26 07:30:49;;;;;;;10.95;8.23;;;;;;;;;;6155038;23;20018;-78
2023/07/26 07:33:15;;;;;;;12.93;8.60;;;;;;;;;;6157460;23;20022;-78
2023/07/26 07:35:42;;;;;;;11.05;8.05;;;;;;;;;;6157613;23;20405;-78
2023/07/26 07:38:08;;;;;;;11.10;8.07;;;;;;;;;;6156915;23;20074;-79
2023/07/26 07:40:37;;;;;;;10.45;8.05;;;;;;;;;;6155472;23;20526;-78
2023/07/26 07:43:03;;;;;;;10.23;7.45;;;;;;;;;;6156296;23;20342;-79
2023/07/26 07:45:30;;;;;;;10.18;6.88;;;;;;;;;;6146893;23;20024;-77
2023/07/26 07:47:57;;;;;;;16.00;8.52;;;;;;;;;;6153087;23;20097;-77
2023/07/26 07:50:24;;;;;;;9.88;6.30;;;;;;;;;;6159247;23;20022;-80
2023/07/26 07:52:51;;;;;;;8.57;6.32;;;;;;;;;;6157050;23;20466;-77
2023/07/26 07:55:17;;;;;;;9.48;7.00;;;;;;;;;;6154589;23;20025;-78
2023/07/26 07:57:45;;;;;;;11.85;6.18;;;;;;;;;;6154646;23;20076;-78
2023/07/26 08:00:13;;;;;;;7.80;5.88;;;;;;;;;;6154274;23;20028;-77
2023/07/26 08:02:40;;;;;;;7.45;5.30;;;;;;;;;;6153363;23;20284;-78
2023/07/26 08:05:07;;;;;;;9.10;5.60;;;;;;;;;;6154532;23;20072;-77
2023/07/26 08:07:34;;;;;;;8.88;5.65;;;;;;;;;;6153415;23;20018;-77
2023/07/26 08:10:01;;;;;;;8.07;5.70;;;;;;;;;;6157401;23;20288;-84
2023/07/26 08:12:27;;;;;;;7.65;6.15;;;;;;;;;;6157376;23;20017;-81
2023/07/26 08:14:55;;;;;;;8.65;6.00;;;;;;;;;;6159358;23;20018;-81
2023/07/26 08:17:22;;;;;;;7.97;5.78;;;;;;;;;;6173938;23;20030;-78
2023/07/26 08:19:48;;;;;;;8.38;5.90;;;;;;;;;;6169613;23;20022;-81
2023/07/26 08:22:15;;;;;;;8.77;6.13;;;;;;;;;;6164270;23;20026;-81
2023/07/26 08:24:41;;;;;;;8.07;5.90;;;;;;;;;;6158860;23;20052;-81
2023/07/26 08:27:08;;;;;;;7.78;6.00;;;;;;;;;;6162243;23;20113;-79
2023/07/26 08:29:35;;;;;;;8.88;5.88;;;;;;;;;;6156447;23;20359;-76
2023/07/26 08:32:03;;;;;;;7.90;5.82;;;;;;;;;;6155755;23;20032;-78
2023/07/26 08:34:30;;;;;;;7.28;6.00;;;;;;;;;;6155684;23;20018;-78
2023/07/26 08:36:56;;;;;;;9.55;6.65;;;;;;;;;;6159290;23;20025;-78
2023/07/26 08:39:23;;;;;;;9.60;6.72;;;;;;;;;;6157964;23;20053;-79
2023/07/26 08:41:50;;;;;;;9.57;6.18;;;;;;;;;;6159094;23;20017;-78
2023/07/26 08:44:20;;;;;;;8.65;5.82;;;;;;;;;;6155284;23;20028;-77
2023/07/26 08:46:52;;;;;;;8.07;5.72;;;;;;;;;;6158201;23;20021;-79
2023/07/26 08:49:20;;;;;;;8.70;6.07;;;;;;;;;;6157801;23;20072;-79
2023/07/26 08:51:48;;;;;;;8.27;5.63;;;;;;;;;;6156051;23;20025;-79
2023/07/26 08:54:15;;;;;;;7.60;5.15;;;;;;;;;;6156754;23;20088;-79
2023/07/26 08:56:48;;;;;;;8.82;4.55;;;;;;;;;;6156916;23;20026;-79
2023/07/26 08:59:14;;;;;;;6.60;4.00;;;;;;;;;;6157591;23;20097;-79
2023/07/26 09:01:41;;;;;;;8.18;4.35;;;;;;;;;;6157183;23;20021;-79
2023/07/26 09:04:10;;;;;;;6.20;4.03;;;;;;;;;;6154993;23;20354;-78
2023/07/26 09:06:44;;;;;;;6.10;3.72;;;;;;;;;;6155906;23;20041;-79
2023/07/26 09:09:12;;;;;;;5.55;3.60;;;;;;;;;;6156943;23;20021;-79
2023/07/26 09:11:49;;;;;;;5.47;3.63;;;;;;;;;;6157342;23;20025;-77
2023/07/26 09:14:16;;;;;;;7.57;4.25;;;;;;;;;;6153589;23;20080;-77
2023/07/26 09:16:43;;;;;;;6.18;3.78;;;;;;;;;;6152557;23;20017;-78
2023/07/26 09:19:09;;;;;;;6.03;3.75;;;;;;;;;;6152315;23;20057;-77
2023/07/26 09:21:37;;;;;;;7.88;3.50;;;;;;;;;;6152400;23;20028;-80
2023/07/26 09:24:05;;;;;;;5.88;3.65;;;;;;;;;;6152579;23;20048;-78
2023/07/26 09:26:37;;;;;;;6.13;3.53;;;;;;;;;;6151701;23;20025;-77
2023/07/26 09:29:09;;;;;;;5.82;3.58;;;;;;;;;;6152661;23;20365;-78
2023/07/26 09:31:36;;;;;;;6.05;4.32;;;;;;;;;;6156423;23;20033;-78
2023/07/26 09:34:04;;;;;;;6.43;3.72;;;;;;;;;;6157655;23;20101;-77
2023/07/26 09:36:42;;;;;;;5.13;3.42;;;;;;;;;;6156207;23;20073;-78
2023/07/26 09:39:10;;;;;;;5.18;3.53;;;;;;;;;;6165242;23;20028;-84
2023/07/26 09:41:37;;;;;;;7.55;3.58;;;;;;;;;;6165812;23;20021;-83
2023/07/26 09:44:05;;;;;;;5.57;3.80;;;;;;;;;;6155671;23;20415;-78
2023/07/26 09:46:32;;;;;;;5.90;3.78;;;;;;;;;;6153318;23;20040;-77
2023/07/26 09:48:59;;;;;;;5.05;3.70;;;;;;;;;;6152619;23;20024;-79
2023/07/26 09:51:28;;;;;;;6.28;3.45;;;;;;;;;;6153323;23;20021;-79
2023/07/26 09:53:56;;;;;;;7.38;3.80;;;;;;;;;;6156359;23;20092;-78
2023/07/26 09:56:25;;;;;;;5.97;3.65;;;;;;;;;;6156038;23;20021;-78
2023/07/26 09:58:51;;;;;;;5.60;3.65;;;;;;;;;;6154264;23;20025;-77
2023/07/26 10:01:19;;;;;;;6.35;3.30;;;;;;;;;;6153201;23;20025;-78
2023/07/26 10:03:52;;;;;;;5.20;3.45;;;;;;;;;;6154221;23;20017;-79
2023/07/26 10:06:20;;;;;;;4.70;3.05;;;;;;;;;;6153100;23;20853;-78
2023/07/26 10:08:47;;;;;;;5.22;3.08;;;;;;;;;;6151667;23;20026;-77
2023/07/26 10:11:15;;;;;;;6.03;2.88;;;;;;;;;;6153663;23;20025;-79
2023/07/26 10:13:44;;;;;;;4.30;2.90;;;;;;;;;;6151971;23;20017;-78
2023/07/26 10:16:11;;;;;;;4.93;3.08;;;;;;;;;;6153882;23;20017;-78
2023/07/26 10:18:38;;;;;;;5.35;3.35;;;;;;;;;;6154447;23;20025;-78
2023/07/26 10:21:07;;;;;;;4.45;2.78;;;;;;;;;;6154536;23;20255;-77
2023/07/26 10:23:35;;;;;;;6.23;3.10;;;;;;;;;;6154616;23;20022;-78
2023/07/26 10:26:04;;;;;;;12.32;3.60;;;;;;;;;;6153562;23;20400;-77
2023/07/26 10:28:33;;;;;;;5.15;3.38;;;;;;;;;;6151456;23;20466;-77
2023/07/26 10:31:02;;;;;;;5.03;2.60;;;;;;;;;;6152458;23;20025;-78
2023/07/26 10:33:28;;;;;;;5.95;2.78;;;;;;;;;;6150974;23;20097;-78
2023/07/26 10:35:55;;;;;;;4.50;2.55;;;;;;;;;;6151575;23;20429;-79
2023/07/26 10:38:22;;;;;;;4.15;2.72;;;;;;;;;;6156786;23;20082;-78
2023/07/26 10:40:49;;;;;;;4.38;3.00;;;;;;;;;;6159843;23;20096;-77
2023/07/26 10:43:17;;;;;;;5.18;2.83;;;;;;;;;;6160717;23;20059;-78
2023/07/26 10:45:44;;;;;;;5.32;3.45;;;;;;;;;;6162620;23;20056;-78
2023/07/26 10:48:27;;;;;;;4.40;2.67;;;;;;;;;;6163523;23;20022;-78
2023/07/26 10:50:56;;;;;;;4.13;2.65;;;;;;;;;;6159957;23;20022;-77
2023/07/26 10:53:32;;;;;;;4.45;2.70;;;;;;;;;;6151694;23;20052;-76
2023/07/26 10:56:12;;;;;;;5.25;2.83;;;;;;;;;;6156600;23;20073;-77
2023/07/26 10:58:49;;;;;;;3.97;2.50;;;;;;;;;;6153864;23;20053;-77
2023/07/26 11:01:34;;;;;;;4.18;2.10;;;;;;;;;;6151702;23;20081;-76
2023/07/26 11:04:02;;;;;;;3.75;2.50;;;;;;;;;;6152972;23;20026;-77
2023/07/26 11:06:52;;;;;;;6.07;2.75;;;;;;;;;;6153988;23;20033;-77
2023/07/26 11:09:25;;;;;;;4.80;2.72;;;;;;;;;;6156687;23;20431;-77
2023/07/26 11:11:53;;;;;;;4.03;2.33;;;;;;;;;;6150107;23;20093;-77
2023/07/26 11:14:20;;;;;;;3.42;1.92;;;;;;;;;;6151341;23;20021;-82
2023/07/26 11:16:46;;;;;;;3.10;1.80;;;;;;;;;;6157064;23;20031;-78
2023/07/26 11:19:14;;;;;;;3.30;2.00;;;;;;;;;;6150642;23;20036;-77
2023/07/26 11:21:43;;;;;;;5.22;1.83;;;;;;;;;;6151553;23;20503;-77
2023/07/26 11:24:10;;;;;;;5.95;2.28;;;;;;;;;;6155158;23;20087;-79
2023/07/26 11:26:47;;;;;;;4.05;2.00;;;;;;;;;;6152518;23;20017;-78
2023/07/26 11:29:14;;;;;;;3.40;2.17;;;;;;;;;;6153528;23;20033;-78
2023/07/26 11:31:41;;;;;;;5.55;2.80;;;;;;;;;;6156389;23;20021;-78
2023/07/26 11:34:16;;;;;;;4.35;2.85;;;;;;;;;;6154266;23;20018;-77
2023/07/26 11:36:43;;;;;;;5.60;2.65;;;;;;;;;;6157600;23;20088;-78
2023/07/26 11:39:23;;;;;;;4.05;2.22;;;;;;;;;;6155467;23;20082;-77
2023/07/26 11:41:50;;;;;;;3.63;2.55;;;;;;;;;;6153980;23;20017;-77
2023/07/26 11:44:20;;;;;;;5.95;2.50;;;;;;;;;;6155758;23;20028;-78
2023/07/26 11:46:47;;;;;;;8.35;3.83;;;;;;;;;;6162247;23;20025;-79
2023/07/26 11:49:20;;;;;;;12.15;5.32;;;;;;;;;;6162414;23;20028;-79
2023/07/26 11:51:47;;;;;;;7.97;4.03;;;;;;;;;;6157965;23;20017;-79
2023/07/26 11:54:14;;;;;;;6.28;3.78;;;;;;;;;;6155662;23;20017;-80
2023/07/26 11:56:41;;;;;;;8.73;5.45;;;;;;;;;;6158192;23;20032;-80
2023/07/26 11:59:09;;;;;;;6.95;4.45;;;;;;;;;;6156500;23;20092;-79
2023/07/26 12:01:36;;;;;;;8.48;4.68;;;;;;;;;;6156989;23;20022;-78
2023/07/26 12:04:09;;;;;;;7.13;4.60;;;;;;;;;;6154391;23;20362;-78
2023/07/26 12:06:38;;;;;;;7.18;5.00;;;;;;;;;;6154138;23;20243;-78
2023/07/26 12:09:08;;;;;;;6.75;5.28;;;;;;;;;;6154433;23;20018;-77
2023/07/26 12:11:35;;;;;;;6.13;4.38;;;;;;;;;;6155146;23;20414;-78
2023/07/26 12:14:02;;;;;;;6.43;3.97;;;;;;;;;;6156682;23;20021;-78
2023/07/26 12:16:31;;;;;;;6.57;3.70;;;;;;;;;;6155154;23;20029;-80
2023/07/26 12:19:00;;;;;;;6.18;4.03;;;;;;;;;;6155083;23;20309;-81
2023/07/26 12:21:28;;;;;;;6.32;3.85;;;;;;;;;;6157074;23;20049;-79
2023/07/26 12:23:57;;;;;;;6.57;4.35;;;;;;;;;;6156909;23;20018;-80
2023/07/26 12:26:25;;;;;;;6.47;4.10;;;;;;;;;;6156782;23;20026;-79
2023/07/26 12:28:54;;;;;;;5.82;4.07;;;;;;;;;;6156724;23;20022;-79
2023/07/26 12:31:22;;;;;;;5.18;4.15;;;;;;;;;;6156642;23;20018;-79
2023/07/26 12:33:57;;;;;;;6.55;4.22;;;;;;;;;;6157385;23;20041;-81
2023/07/26 12:36:23;;;;;;;5.10;3.90;;;;;;;;;;6156934;23;20038;-79
2023/07/26 12:38:50;;;;;;;5.05;3.08;;;;;;;;;;6156638;23;20029;-79
2023/07/26 12:41:18;;;;;;;4.95;3.42;;;;;;;;;;6158348;23;20026;-79
2023/07/26 12:43:45;;;;;;;5.60;3.40;;;;;;;;;;6159267;23;20032;-80
2023/07/26 12:46:13;;;;;;;4.68;3.50;;;;;;;;;;6161778;23;20017;-79
2023/07/26 12:48:42;;;;;;;6.95;3.47;;;;;;;;;;6160678;23;20052;-78
2023/07/26 12:51:09;;;;;;;5.20;3.17;;;;;;;;;;6156391;23;20048;-79
2023/07/26 12:53:36;;;;;;;4.78;3.10;;;;;;;;;;6156735;23;20017;-80
2023/07/26 12:56:02;;;;;;;4.43;3.08;;;;;;;;;;6157419;23;20028;-78
2023/07/26 12:58:30;;;;;;;5.10;3.58;;;;;;;;;;6157425;23;20407;-79
2023/07/26 13:00:57;;;;;;;5.22;3.50;;;;;;;;;;6157466;23;20124;-78
2023/07/26 13:03:23;;;;;;;5.57;3.65;;;;;;;;;;6157376;23;20045;-79
2023/07/26 13:05:50;;;;;;;4.47;3.28;;;;;;;;;;6155762;23;20025;-78
2023/07/26 13:08:17;;;;;;;4.78;3.20;;;;;;;;;;6158059;23;20017;-78
2023/07/26 13:10:44;;;;;;;5.10;3.00;;;;;;;;;;6158820;23;20022;-80
2023/07/26 13:13:10;;;;;;;5.18;3.53;;;;;;;;;;6157754;23;20022;-78
2023/07/26 13:15:38;;;;;;;5.43;3.47;;;;;;;;;;6159281;23;20018;-79
2023/07/26 13:18:05;;;;;;;3.88;2.78;;;;;;;;;;6158570;23;20029;-80
2023/07/26 13:20:32;;;;;;;4.30;2.80;;;;;;;;;;6157615;23;20100;-78
2023/07/26 13:22:58;;;;;;;5.90;3.25;;;;;;;;;;6160051;23;20021;-79
2023/07/26 13:25:25;;;;;;;3.53;2.25;;;;;;;;;;6159145;23;20021;-78
2023/07/26 13:27:52;;;;;;;4.03;2.83;;;;;;;;;;6158295;23;20017;-79
2023/07/26 13:30:18;;;;;;;3.85;2.53;;;;;;;;;;6157828;23;20093;-80
2023/07/26 13:32:46;;;;;;;3.60;2.40;;;;;;;;;;6156705;23;20036;-79
2023/07/26 13:35:13;;;;;;;4.95;2.30;;;;;;;;;;6157125;23;20453;-78
2023/07/26 13:37:40;;;;;;;3.70;2.30;;;;;;;;;;6157014;23;20032;-78
2023/07/26 13:40:07;;;;;;;4.80;2.40;;;;;;;;;;6154753;23;20025;-78
2023/07/26 13:42:34;;;;;;;5.53;2.40;;;;;;;;;;6157092;23;20031;-78
2023/07/26 13:45:01;;;;;;;4.07;2.20;;;;;;;;;;6156618;23;20044;-79
2023/07/26 13:47:30;;;;;;;4.43;2.35;;;;;;;;;;6156106;23;20071;-79
2023/07/26 13:49:58;;;;;;;4.85;2.50;;;;;;;;;;6154681;23;20021;-77
2023/07/26 13:52:25;;;;;;;3.47;2.13;;;;;;;;;;6154053;23;20018;-79
2023/07/26 13:54:51;;;;;;;2.97;2.03;;;;;;;;;;6155512;23;20021;-78
2023/07/26 13:57:18;;;;;;;3.92;2.35;;;;;;;;;;6156445;23;20501;-78
2023/07/26 13:59:44;;;;;;;3.97;2.42;;;;;;;;;;6155428;23;20121;-77
2023/07/26 14:02:11;;;;;;;3.53;2.22;;;;;;;;;;6154042;23;20033;-78
2023/07/26 14:04:37;;;;;;;3.47;2.30;;;;;;;;;;6155259;23;20021;-79
2023/07/26 14:07:06;;;;;;;4.88;2.67;;;;;;;;;;6170486;23;20028;-78
2023/07/26 14:09:32;;;;;;;3.50;2.20;;;;;;;;;;6153530;23;20021;-78
2023/07/26 14:12:01;;;;;;;4.63;2.38;;;;;;;;;;6152693;23;20021;-79
2023/07/26 14:14:27;;;;;;;3.95;2.28;;;;;;;;;;6153325;23;20013;-78
2023/07/26 14:16:54;;;;;;;4.95;3.10;;;;;;;;;;6154452;23;20017;-78
2023/07/26 14:19:21;;;;;;;3.92;2.13;;;;;;;;;;6154599;23;20033;-79
2023/07/26 14:21:47;;;;;;;3.05;1.90;;;;;;;;;;6155049;23;20358;-78
2023/07/26 14:24:15;;;;;;;4.90;2.22;;;;;;;;;;6155752;23;20017;-78
2023/07/26 14:26:42;;;;;;;3.03;1.98;;;;;;;;;;6156037;23;20084;-78
2023/07/26 14:29:08;;;;;;;2.67;1.70;;;;;;;;;;6153109;23;20327;-77
2023/07/26 14:31:36;;;;;;;2.90;1.90;;;;;;;;;;6155203;23;20073;-79
2023/07/26 14:34:02;;;;;;;4.57;2.15;;;;;;;;;;6154459;23;20021;-78
2023/07/26 14:36:30;;;;;;;3.78;2.10;;;;;;;;;;6153546;23;20462;-77
2023/07/26 14:38:57;;;;;;;4.80;2.30;;;;;;;;;;6159151;23;20052;-80
2023/07/26 14:41:25;;;;;;;3.95;2.10;;;;;;;;;;6161666;23;20028;-80